Tiempo atmosférico en la estación meteorológica de La Aldea de San Nicolás, Las Palmas (318 m.)



Fecha
DESCASC
Temp. máxima en grados centígrados (hora)
DESCASC
Temp. mínima en grados centígrados (hora)
DESCASC
Temp. media en grados centígrados
DESCASC
Racha de viento máxima en m/sg (hora)
DESCASC
Velocidad máxima media en intervalos de 10 minutos(hora)
DESCASC
Precipitaciones diarias en mm
DESCASC
Precipitaciones de 00:00 a 06:00 en mm
DESCASC
Precipitaciones de 06:00 a 12:00 en mm
DESCASC
Precipitaciones de 12:00 a 18:00 en mm
DESCASC
Precipitaciones de 18:00 a 24:00 en mm
DESCASC
22-04-2019 24 (14:00) 18 (08:00) 21 16.11 (23:00) 11.39 (23:10) 0 0 0 0 0
21-04-2019 26 (14:20) 17.5 (06:40) 21.8 14.72 (22:30) 7.22 (12:10) 0 0 0 0 0
20-04-2019 24 (15:30) 17.1 (08:50) 20.6 17.5 (00:30) 8.89 (00:50) 0 0 0 0 0
19-04-2019 24.8 (13:50) 17.2 (07:40) 21 20.56 (16:00) 10.28 (05:50) 0 0 0 0 0
18-04-2019 25.5 (15:10) 18 (00:00) 21.8 18.06 (11:50) 8.89 (16:30) 0 0 0 0 0
17-04-2019 24.1 (12:40) 14.4 (00:00) 19.3 12.5 (22:20) 6.39 (01:30) 0 0 0 0 0
16-04-2019 24.3 (16:40) 13.3 (00:00) 18.8 9.72 (14:00) 6.11 (13:30) 0 0 0 0 0
15-04-2019 25.3 (14:40) 18.2 (00:00) 21.8 14.17 (14:40) 8.89 (17:10) 0 0 0 0 0
14-04-2019 24.5 (14:00) 11.8 (00:00) 18.2 13.89 (20:30) 7.78 (19:20) 0 0 0 0 0
13-04-2019 23 (14:00) 17.6 (00:00) 20.3 20 (12:00) 11.67 (08:20) 0 0 0 0 0
12-04-2019 23.8 (14:40) 17.3 (00:00) 20.5 21.11 (17:30) 11.39 (12:40) 0 0 0 0 0
11-04-2019 23.9 (16:40) 17.2 (00:00) 20.6 21.94 (14:00) 10.28 (19:40) 0 0 0 0 0
10-04-2019 24.2 (13:50) 17 (00:00) 20.6 25.28 (15:20) 9.72 (02:10) 0 0 0 0 0
09-04-2019 24.4 (14:10) 14.4 (00:00) 19.4 20 (22:50) 8.33 (17:40) 0 0 0 0 0
08-04-2019 24.8 (15:20) 17.6 (00:00) 21.2 16.11 (22:00) 7.22 (22:00) 0 0 0 0 0
07-04-2019 23.5 (15:40) 12.9 (00:00) 18.2 12.78 (18:00) 7.22 (18:00) 0 0 0 0 0
06-04-2019 23.5 (14:20) 16.3 (00:00) 19.9 16.11 (12:50) 7.5 (16:30) 0.2 0.2 0 0 0
05-04-2019 26.1 (15:50) 16.1 (00:00) 21.1 13.06 (14:10) 7.22 (14:00) 0 0 0 0 0
04-04-2019 23.5 (14:00) 14.8 (00:00) 19.2 14.17 (17:20) 6.39 (17:20) 1.8 0.2 1.6 0 0
03-04-2019 23.9 (17:40) 13.6 (00:00) 18.8 10.83 (17:00) 6.39 (16:50) 0 0 0 0 0
02-04-2019 22.1 (13:10) 15 (00:00) 18.6 7.22 (17:50) 4.44 (21:00) 0 0 0 0 0
01-04-2019 23.2 (14:10) 13.4 (00:00) 18.3 8.61 (12:50) 5 (11:20) 0 0 0 0 0
31-03-2019 23.2 (14:50) 11.9 (00:00) 17.6 9.17 (21:50) 5 (23:10) 0 0 0 0 0
30-03-2019 23 (15:40) 11.7 (00:00) 17.3 11.39 (14:20) 6.39 (14:20) 0.4 0 0.4 0 0
29-03-2019 22.9 (13:50) 12.8 (00:00) 17.8 10.28 (14:50) 7.22 (14:50) 0 0 0 0 0
28-03-2019 23.4 (17:10) 11.8 (00:00) 17.6 8.06 (15:00) 4.44 (10:40) 0 0 0 0 0
27-03-2019 23.4 (16:30) 16.6 (00:00) 20 10.83 (18:50) 6.11 (15:10) 1 0.8 0.2 0 0

Gráficas

Temp. máximas Temp. mínimas Temp. medias Precipitaciones Rachas de viento máximas Velocidades máximas media en intervalos de 10 minutos

Datos horarios

Fecha y hora oficial Temperatura (ºC) Velocidad del viento (km/h) Dirección del viento Racha (km/h) Dirección de racha Precipitación (mm) Presión (hPa) Tendencia (hPa) Humedad (%)
2019-04-25 23:00:00 16.8 0 Calma 15 Sur 0 -- -- 74
2019-04-25 22:00:00 17.1 13 Sur 20 Sur 0 -- -- 74
2019-04-25 21:00:00 18 15 Sur 28 Sur 0 -- -- 72
2019-04-25 20:00:00 19.4 15 Sur 28 Norte 0 -- -- 66
2019-04-25 19:00:00 20.8 14 Norte 37 Noroeste 0 -- -- 52
2019-04-25 18:00:00 21 24 Norte 41 Norte 0 -- -- 50
2019-04-25 17:00:00 21.7 21 Norte 33 Norte 0 -- -- 50
2019-04-25 16:00:00 24.5 22 Sur 35 Sur 0 -- -- 49
2019-04-25 15:00:00 24.1 21 Sur 34 Sur 0 -- -- 48
2019-04-25 14:00:00 23.9 23 Sur 33 Sur 0 -- -- 48
2019-04-25 13:00:00 23.1 21 Sur 31 Sur 0 -- -- 52
2019-04-25 12:00:00 19.9 9 Noroeste 27 Nordeste 0 -- -- 58
2019-04-25 11:00:00 19.7 7 Nordeste 15 Sur 0 -- -- 53
2019-04-25 10:00:00 17.7 9 Sur 15 Sur 0 -- -- 60
2019-04-25 09:00:00 14.2 2 Norte 11 Norte 0 -- -- 67
2019-04-25 08:00:00 14.1 3 Norte 15 Norte 0 -- -- 65
2019-04-25 07:00:00 14.4 6 Norte 15 Norte 0 -- -- 64
2019-04-25 06:00:00 15.1 9 Norte 19 Nordeste 0 -- -- 55
2019-04-25 05:00:00 15.1 10 Nordeste 22 Nordeste 0 -- -- 60
2019-04-25 04:00:00 14.7 7 Norte 15 Nordeste 0 -- -- 67
2019-04-25 03:00:00 14.5 8 Nordeste 14 Norte 0 -- -- 68
2019-04-25 02:00:00 15 8 Norte 17 Nordeste 0 -- -- 70
2019-04-25 01:00:00 14.9 7 Norte 11 Norte 0 -- -- 72
2019-04-25 00:00:00 15.4 6 Norte 22 Nordeste 0 -- -- 70
2019-04-24 23:00:00 16 16 Nordeste 24 Nordeste 0 -- -- 69
2019-04-24 22:00:00 16.1 12 Nordeste 22 Norte 0 -- -- 72
2019-04-24 21:00:00 16.6 13 Norte 23 Nordeste 0 -- -- 71
2019-04-24 20:00:00 17.5 12 Norte 32 Nordeste 0 -- -- 67
2019-04-24 19:00:00 18.3 19 Noroeste 34 Norte 0 -- -- 64
2019-04-24 18:00:00 19.6 19 Norte 38 Norte 0 -- -- 55
2019-04-24 17:00:00 20 24 Noroeste 38 Norte 0 -- -- 52
2019-04-24 16:00:00 25.4 22 Sur 30 Sur 0 -- -- 46
2019-04-24 15:00:00 25.2 21 Sur 32 Sur 0 -- -- 47
2019-04-24 14:00:00 24.3 23 Sur 34 Sur 0 -- -- 50
2019-04-24 13:00:00 22.6 24 Sur 35 Sur 0 -- -- 55
2019-04-24 12:00:00 22.4 21 Sur 26 Sur 0 -- -- 55
2019-04-24 11:00:00 20.8 18 Sur 26 Sur 0 -- -- 59
2019-04-24 10:00:00 18.3 5 Nordeste 10 Este 0 -- -- 57
2019-04-24 09:00:00 15.1 5 Nordeste 14 Nordeste 0 -- -- 65
2019-04-24 08:00:00 14.7 7 Nordeste 21 Norte 0 -- -- 65
2019-04-24 07:00:00 14.9 7 Norte 32 Norte 0 -- -- 65
2019-04-24 06:00:00 15.2 19 Norte 38 Norte 0 -- -- 65
2019-04-24 05:00:00 15.2 14 Norte 26 Noroeste 0 -- -- 67
2019-04-24 04:00:00 15.4 12 Norte 29 Nordeste 0 -- -- 65
2019-04-24 03:00:00 15.6 18 Norte 31 Norte 0 -- -- 63
2019-04-24 02:00:00 15.9 19 Norte 35 Norte 0 -- -- 58
2019-04-24 01:00:00 15.9 22 Norte 37 Norte 0 -- -- 65
2019-04-24 00:00:00 16 20 Norte 34 Norte 0 -- -- 66
2019-04-23 23:00:00 16.3 16 Norte 43 Norte 0 -- -- 62
2019-04-23 22:00:00 16.6 28 Norte 42 Norte 0 -- -- 58
2019-04-23 21:00:00 16.8 22 Norte 40 Nordeste 0 -- -- 58
2019-04-23 20:00:00 17 27 Norte 45 Norte 0 -- -- 63
2019-04-23 19:00:00 18 24 Norte 44 Norte 0 -- -- 62
2019-04-23 18:00:00 18.8 25 Norte 50 Norte 0 -- -- 63
2019-04-23 17:00:00 18.6 27 Norte 60 Noroeste 0 -- -- 69
2019-04-23 16:00:00 18.8 24 Norte 47 Noroeste 0 -- -- 68
2019-04-23 15:00:00 20.2 22 Noroeste 49 Norte 0 -- -- 64
2019-04-23 14:00:00 22.1 18 Norte 46 Noroeste 0 -- -- 50
2019-04-23 13:00:00 21.1 25 Norte 45 Noroeste 0 -- -- 52
2019-04-23 12:00:00 20.6 13 Noroeste 35 Nordeste 0 -- -- 52
2019-04-23 11:00:00 19.3 20 Norte 41 Nordeste 0 -- -- 57
2019-04-23 10:00:00 17.9 11 Norte 30 Norte 0 -- -- 67
2019-04-23 09:00:00 15 2 Sur 13 Sur 0 -- -- 83
2019-04-23 08:00:00 14.8 9 Sur 15 Sur 0 -- -- 83
2019-04-23 07:00:00 15.5 5 Sur 21 Sur 0 -- -- 77
2019-04-23 06:00:00 16.5 6 Sudeste 39 Norte 0 -- -- 64
2019-04-23 05:00:00 17.1 22 Norte 48 Norte 0 -- -- 62
2019-04-23 04:00:00 17.1 30 Norte 58 Norte 0 -- -- 64
2019-04-23 03:00:00 16.8 42 Norte 59 Norte 0 -- -- 66
2019-04-23 02:00:00 16.7 29 Norte 46 Noroeste 0 -- -- 69
2019-04-23 01:00:00 16.8 17 Norte 29 Nordeste 0 -- -- 69
2019-04-23 00:00:00 16.9 18 Nordeste 32 Norte 0 -- -- 71
2019-04-22 23:00:00 17.2 14 Norte 23 Norte 0 -- -- 71
2019-04-22 22:00:00 17.7 12 Norte 20 Norte 0 -- -- 69
2019-04-22 21:00:00 17.8 5 Sur 23 Sur 0 -- -- 75
2019-04-22 20:00:00 18.9 7 Nordeste 33 Sur 0 -- -- 68
2019-04-22 19:00:00 21.2 23 Sur 35 Sur 0 -- -- 64
2019-04-22 18:00:00 23 23 Sur 37 Sur 0 -- -- 58
2019-04-22 17:00:00 24 26 Sur 34 Sur 0 -- -- 56
2019-04-22 16:00:00 24.4 22 Sur 37 Sur 0 -- -- 56
2019-04-22 15:00:00 24.6 23 Sur 33 Sur 0 -- -- 54
2019-04-22 14:00:00 24.3 25 Sur 33 Sur 0 -- -- 55
2019-04-22 13:00:00 23.7 25 Sur 33 Sur 0 -- -- 57
2019-04-22 12:00:00 22.8 18 Sur 27 Sur 0 -- -- 58
2019-04-22 11:00:00 21.7 15 Sur 19 Sur 0 -- -- 57
2019-04-22 10:00:00 18.3 10 Sur 15 Sur 0 -- -- 66
2019-04-22 09:00:00 15.2 0 Calma 11 Sur 0 -- -- 75
2019-04-22 08:00:00 15.9 11 Sur 30 Nordeste 0 -- -- 73
2019-04-22 07:00:00 16.3 12 Este 30 Nordeste 0 -- -- 64
2019-04-22 06:00:00 16.4 16 Norte 41 Norte 0 -- -- 64
2019-04-22 05:00:00 16.5 16 Nordeste 41 Norte 0 -- -- 62
2019-04-22 04:00:00 16.5 25 Norte 44 Norte 0 -- -- 65
2019-04-22 03:00:00 15.7 6 Sur 13 Este 0 -- -- 71
2019-04-22 02:00:00 16.1 5 Este 13 Este 0 -- -- 69
2019-04-22 01:00:00 17 6 Este 27 Noroeste 0 -- -- 68
2019-04-22 00:00:00 17.1 17 Norte 36 Nordeste 0 -- -- 64
2019-04-21 23:00:00 17.1 23 Nordeste 35 Nordeste 0 -- -- 66
2019-04-21 22:00:00 16.8 21 Nordeste 32 Nordeste 0 -- -- 71
2019-04-21 21:00:00 17.3 19 Norte 30 Norte 0 -- -- 69
2019-04-21 20:00:00 18.2 16 Norte 36 Norte 0 -- -- 64
2019-04-21 19:00:00 18.9 25 Norte 39 Noroeste 0 -- -- 63
2019-04-21 18:00:00 19 26 Norte 48 Noroeste 0 -- -- 64
2019-04-21 17:00:00 19.1 25 Norte 46 Norte 0 -- -- 66
2019-04-21 16:00:00 18.6 30 Norte 47 Noroeste 0 -- -- 67
2019-04-21 15:00:00 20.3 27 Norte 51 Noroeste 0 -- -- 58
2019-04-21 14:00:00 19.7 30 Norte 51 Noroeste 0 -- -- 57
2019-04-21 13:00:00 19.3 26 Norte 46 Noroeste 0 -- -- 56
2019-04-21 12:00:00 19.3 21 Norte 35 Norte 0 -- -- 54
2019-04-21 11:00:00 16.9 27 Noroeste 42 Noroeste 0 -- -- 66
2019-04-21 10:00:00 16.7 21 Norte 32 Norte 0 -- -- 69
2019-04-21 09:00:00 16.5 17 Norte 30 Norte 0 -- -- 64
2019-04-21 08:00:00 16 14 Norte 32 Norte 0 -- -- 60
2019-04-21 07:00:00 15.9 16 Norte 41 Norte 0 -- -- 61
2019-04-21 06:00:00 16.3 21 Norte 34 Norte 0 -- -- 58
2019-04-21 05:00:00 16.4 21 Norte 37 Noroeste 0 -- -- 66
2019-04-21 04:00:00 16.6 18 Norte 44 Norte 0 -- -- 59
2019-04-21 03:00:00 16.6 24 Norte 46 Nordeste 0 -- -- 54
2019-04-21 02:00:00 16.8 23 Norte 41 Nordeste 0 -- -- 57
2019-04-21 01:00:00 16.4 23 Nordeste 44 Norte 0 -- -- 67
2019-04-21 00:00:00 15.9 19 Norte 38 Norte 0 -- -- 74
2019-04-20 23:00:00 16.5 15 Norte 34 Noroeste 0 -- -- 65
2019-04-20 22:00:00 16.7 12 Norte 41 Norte 0 -- -- 63
2019-04-20 21:00:00 16.9 17 Norte 42 Norte 0 -- -- 59
2019-04-20 20:00:00 17 23 Norte 45 Noroeste 0 -- -- 65
2019-04-20 19:00:00 18.1 19 Noroeste 31 Norte 0 -- -- 61
2019-04-20 18:00:00 18.4 22 Norte 44 Noroeste 0 -- -- 58
2019-04-20 17:00:00 19.1 20 Noroeste 38 Noroeste 0 -- -- 60
2019-04-20 16:00:00 19.5 23 Norte 45 Noroeste 0 -- -- 56
2019-04-20 15:00:00 19 30 Norte 50 Norte 0 -- -- 57
2019-04-20 14:00:00 18.6 23 Norte 41 Noroeste 0 -- -- 61
2019-04-20 13:00:00 17 17 Norte 37 Norte 0 -- -- 67
2019-04-20 12:00:00 15.9 21 Norte 41 Norte 0 -- -- 73
2019-04-20 11:00:00 16.1 15 Norte 39 Norte 0 -- -- 70
2019-04-20 10:00:00 15.6 15 Norte 40 Norte 0 -- -- 72
2019-04-20 09:00:00 15.1 20 Norte 34 Noroeste 0 -- -- 73
2019-04-20 08:00:00 15.3 12 Noroeste 27 Norte 0 -- -- 70
2019-04-20 07:00:00 15.2 14 Norte 33 Norte 0 -- -- 68
2019-04-20 06:00:00 15.2 15 Norte 37 Nordeste 0 -- -- 64
2019-04-20 05:00:00 15.4 23 Norte 41 Nordeste 0 -- -- 59
2019-04-20 04:00:00 15.1 19 Norte 42 Noroeste 0 -- -- 62
2019-04-20 03:00:00 15.4 14 Norte 39 Noroeste 0 -- -- 59
2019-04-20 02:00:00 15.9 19 Norte 42 Norte 0 -- -- 55
2019-04-20 01:00:00 16 25 Norte 53 Norte 0 -- -- 58
2019-04-20 00:00:00 16 30 Norte 50 Norte 0 -- -- 58
2019-04-19 23:00:00 15.2 7 Nordeste 37 Noroeste 0 -- -- 63
2019-04-19 22:00:00 15.3 18 Norte 37 Norte 0 -- -- 66
2019-04-19 21:00:00 15.8 25 Norte 49 Norte 0 -- -- 64
2019-04-19 20:00:00 16.4 25 Norte 41 Norte 0 -- -- 61
2019-04-19 19:00:00 17.5 26 Norte 42 Norte 0 -- -- 61
2019-04-19 18:00:00 18.5 25 Norte 36 Norte 0 -- -- 59
2019-04-19 17:00:00 19.5 23 Norte 36 Norte 0 -- -- 57
2019-04-19 16:00:00 19.6 24 Norte 46 Norte 0 -- -- 57
2019-04-19 15:00:00 18.9 26 Norte 43 Norte 0 -- -- 59
2019-04-19 14:00:00 22.6 12 Sudoeste 31 Sur 0 -- -- 51
2019-04-19 13:00:00 23.2 17 Sur 32 Norte 0 -- -- 50
2019-04-19 12:00:00 18.9 22 Norte 42 Norte 0 -- -- 52
2019-04-19 11:00:00 18.3 23 Norte 40 Noroeste 0 -- -- 48
2019-04-19 10:00:00 17.2 23 Norte 46 Norte 0 -- -- 52
2019-04-19 09:00:00 16.1 23 Norte 59 Norte 0 -- -- 58
2019-04-19 08:00:00 15.8 22 Norte 39 Norte 0 -- -- 55
2019-04-19 07:00:00 15.7 19 Norte 44 Norte 0 -- -- 58
2019-04-19 06:00:00 16 25 Norte 46 Norte 0 -- -- 62
2019-04-19 05:00:00 15.7 26 Norte 49 Norte 0 -- -- 55
2019-04-19 04:00:00 15.7 29 Norte 59 Norte 0 -- -- 62
2019-04-19 03:00:00 16 27 Norte 57 Norte 0 -- -- 60
2019-04-19 02:00:00 16.1 22 Norte 57 Norte 0 -- -- 60
2019-04-19 01:00:00 16 18 Norte 46 Norte 0 -- -- 61
2019-04-19 00:00:00 15.9 20 Norte 48 Norte 0 -- -- 56
2019-04-18 23:00:00 16.3 24 Norte 50 Norte 0 -- -- 53
2019-04-18 22:00:00 16.5 22 Norte 39 Norte 0 -- -- 57
2019-04-18 21:00:00 16.6 20 Norte 43 Norte 0 -- -- 54
2019-04-18 20:00:00 17.2 27 Norte 42 Norte 0 -- -- 55
2019-04-18 19:00:00 18.8 28 Norte 49 Norte 0 -- -- 49
2019-04-18 18:00:00 19.5 33 Norte 53 Norte 0 -- -- 47
2019-04-18 17:00:00 20.4 26 Norte 60 Noroeste 0 -- -- 48
2019-04-18 16:00:00 20.3 28 Norte 44 Norte 0 -- -- 50
2019-04-18 15:00:00 21.1 13 Oeste 31 Noroeste 0 -- -- 49
2019-04-18 14:00:00 19.8 19 Noroeste 36 Noroeste 0 -- -- 51
2019-04-18 13:00:00 19.7 23 Noroeste 39 Norte 0 -- -- 53
2019-04-18 12:00:00 18.4 18 Norte 39 Norte 0 -- -- 59
2019-04-18 11:00:00 18.3 19 Norte 40 Norte 0 -- -- 53
2019-04-18 10:00:00 17.3 21 Norte 45 Norte 0 -- -- 52
2019-04-18 09:00:00 16.1 17 Norte 36 Nordeste 0 -- -- 63
2019-04-18 08:00:00 16 15 Norte 41 Norte 0 -- -- 61
2019-04-18 07:00:00 15.8 18 Norte 35 Nordeste 0 -- -- 62
2019-04-18 06:00:00 15.9 18 Norte 42 Nordeste 0 -- -- 59
2019-04-18 05:00:00 16.2 18 Norte 33 Norte 0 -- -- 57
2019-04-18 04:00:00 16.2 9 Noroeste 32 Nordeste 0 -- -- 60
2019-04-18 03:00:00 16.5 17 Nordeste 44 Nordeste 0 -- -- 58
2019-04-18 02:00:00 16.8 25 Nordeste 42 Norte 0 -- -- 52
2019-04-18 01:00:00 16.5 13 Norte 35 Norte 0 -- -- 65
2019-04-18 00:00:00 16.5 23 Norte 40 Noroeste 0 -- -- 63
2019-04-17 23:00:00 16.7 22 Norte 34 Norte 0 -- -- 69
2019-04-17 22:00:00 17.3 16 Norte 33 Norte 0 -- -- 56
2019-04-17 21:00:00 17.1 15 Norte 37 Noroeste 0 -- -- 62
2019-04-17 20:00:00 17.4 14 Norte 33 Norte 0 -- -- 68
2019-04-17 19:00:00 18.6 15 Norte 30 Norte 0 -- -- 67
2019-04-17 18:00:00 17.4 22 Norte 34 Norte 0 -- -- 75
2019-04-17 17:00:00 20.2 16 Sur 32 Sur 0 -- -- 66
2019-04-17 16:00:00 21.2 18 Sur 28 Sur 0 -- -- 63
2019-04-17 15:00:00 23.6 19 Sur 30 Sur 0 -- -- 55
2019-04-17 14:00:00 24.2 22 Sur 31 Sur 0 -- -- 52
2019-04-17 13:00:00 22.3 21 Sur 29 Sur 0 -- -- 56
2019-04-17 12:00:00 21.6 15 Sur 25 Sur 0 -- -- 60
2019-04-17 11:00:00 20.5 16 Sur 22 Sur 0 -- -- 63
2019-04-17 10:00:00 18.1 5 Sudeste 11 Sudeste 0 -- -- 71
2019-04-17 09:00:00 14.7 3 Norte 10 Nordeste 0 -- -- 78
2019-04-17 08:00:00 15 3 Nordeste 12 Norte 0 -- -- 78
2019-04-17 07:00:00 15 6 Norte 12 Norte 0 -- -- 80
2019-04-17 06:00:00 14.2 5 Norte 14 Nordeste 0 -- -- 81
2019-04-17 05:00:00 14.7 5 Norte 12 Norte 0 -- -- 80
2019-04-17 04:00:00 15.3 5 Norte 15 Norte 0 -- -- 79
2019-04-17 03:00:00 15 6 Norte 10 Nordeste 0 -- -- 80
2019-04-17 02:00:00 15.7 6 Norte 10 Norte 0 -- -- 77
2019-04-17 01:00:00 16.5 9 Norte 15 Norte 0 -- -- 75
2019-04-17 00:00:00 16.8 2 Nordeste 18 Norte 0 -- -- 75
2019-04-16 23:00:00 17.2 11 Norte 27 Norte 0 -- -- 74
2019-04-16 22:00:00 17.3 16 Norte 28 Norte 0 -- -- 74
2019-04-16 21:00:00 18.4 8 Sur 21 Sur 0 -- -- 71
2019-04-16 20:00:00 20.6 10 Sur 21 Sur 0 -- -- 62
2019-04-16 19:00:00 24.2 14 Sur 29 Sur 0 -- -- 53
2019-04-16 18:00:00 25.1 22 Sur 28 Sur 0 -- -- 49
2019-04-16 17:00:00 26.4 21 Sur 27 Sur 0 -- -- 48
2019-04-16 16:00:00 25.7 16 Sur 31 Sur 0 -- -- 54
2019-04-16 15:00:00 24.6 22 Sur 34 Sur 0 -- -- 57
2019-04-16 14:00:00 24.2 25 Sur 33 Sur 0 -- -- 56
2019-04-16 13:00:00 24.2 19 Sur 27 Sur 0 -- -- 57
2019-04-16 12:00:00 22.5 17 Sur 28 Sur 0 -- -- 64
2019-04-16 11:00:00 21.1 12 Sur 17 Sur 0 -- -- 69
2019-04-16 10:00:00 17.6 5 Sudeste 10 Sudeste 0 -- -- 83
2019-04-16 09:00:00 14.9 4 Norte 8 Norte 0 -- -- 86
2019-04-16 08:00:00 13.9 3 Norte 10 Norte 0 -- -- 86
2019-04-16 07:00:00 14.2 6 Norte 9 Norte 0 -- -- 87
2019-04-16 06:00:00 14.2 5 Norte 9 Norte 0 -- -- 88
2019-04-16 05:00:00 14.4 0 Calma 7 Norte 0 -- -- 87
2019-04-16 04:00:00 14.8 6 Norte 8 Norte 0 -- -- 87
2019-04-16 03:00:00 15.4 4 Nordeste 7 Norte 0 -- -- 86
2019-04-16 02:00:00 15.6 4 Norte 6 Norte 0 -- -- 82
2019-04-16 01:00:00 16.3 0 Calma 3 Sur 0 -- -- 77
2019-04-16 00:00:00 16.7 2 Nordeste 9 Norte 0 -- -- 75
2019-04-15 23:00:00 17.4 0 Calma 10 Sur 0 -- -- 73
2019-04-15 22:00:00 17.9 0 Calma 5 Sur 0 -- -- 72
2019-04-15 21:00:00 18.7 5 Sur 14 Sur 0 -- -- 68
2019-04-15 20:00:00 20.3 11 Sur 23 Sur 0 -- -- 65
2019-04-15 19:00:00 22.9 17 Sur 27 Sur 0 -- -- 57
2019-04-15 18:00:00 24 20 Sur 31 Sur 0 -- -- 53
2019-04-15 17:00:00 25.2 22 Sur 33 Sur 0 -- -- 49
2019-04-15 16:00:00 25.4 21 Sur 32 Sur 0 -- -- 50
2019-04-15 15:00:00 25.1 24 Sur 31 Sur 0 -- -- 52
2019-04-15 14:00:00 23.3 20 Sur 29 Sur 0 -- -- 57
2019-04-15 13:00:00 22.2 20 Sur 32 Sur 0 -- -- 61
2019-04-15 12:00:00 22.9 19 Sur 26 Sur 0 -- -- 59
2019-04-15 11:00:00 21.3 15 Sur 20 Sur 0 -- -- 60
2019-04-15 10:00:00 18.5 12 Sur 29 Nordeste 0 -- -- 63
2019-04-15 09:00:00 16.7 12 Nordeste 28 Nordeste 0 -- -- 62
2019-04-15 08:00:00 15.9 12 Nordeste 32 Nordeste 0 -- -- 68
2019-04-15 07:00:00 16.3 15 Nordeste 29 Nordeste 0 -- -- 62
2019-04-15 06:00:00 17 15 Nordeste 31 Nordeste 0 -- -- 56
2019-04-15 05:00:00 16.4 14 Nordeste 31 Este 0 -- -- 62
2019-04-15 04:00:00 17.1 6 Norte 38 Este 0 -- -- 54
2019-04-15 03:00:00 15 5 Nordeste 13 Nordeste 0 -- -- 80
2019-04-15 02:00:00 15.2 6 Norte 8 Norte 0 -- -- 80
2019-04-15 01:00:00 16.2 6 Sur 10 Nordeste 0 -- -- 77
2019-04-15 00:00:00 16.7 6 Nordeste 18 Nordeste 0 -- -- 72
2019-04-14 23:00:00 16.9 15 Nordeste 29 Este 0 -- -- 72
2019-04-14 22:00:00 18.9 5 Nordeste 10 Nordeste 0 -- -- 48
2019-04-14 21:00:00 19.2 9 Norte 18 Nordeste 0 -- -- 57
2019-04-14 20:00:00 22 9 Sudoeste 23 Sur 0 -- -- 41
2019-04-14 19:00:00 25.1 16 Sur 29 Sur 0 -- -- 37
2019-04-14 18:00:00 27.1 13 Sur 27 Sur 0 -- -- 40
2019-04-14 17:00:00 25.3 24 Sur 34 Sur 0 -- -- 41
2019-04-14 16:00:00 26.8 30 Sur 39 Sur 0 -- -- 35
2019-04-14 15:00:00 26.9 25 Sur 33 Sur 0 -- -- 31
2019-04-14 14:00:00 27 24 Sur 32 Sur 0 -- -- 26
2019-04-14 13:00:00 26.2 22 Sur 28 Sur 0 -- -- 31
2019-04-14 12:00:00 24.2 16 Sur 23 Sur 0 -- -- 39
2019-04-14 11:00:00 22.1 16 Sur 21 Sur 0 -- -- 46
2019-04-14 10:00:00 18.5 0 Calma 5 Norte 0 -- -- 52
2019-04-14 09:00:00 13.9 3 Norte 10 Norte 0 -- -- 67
2019-04-14 08:00:00 13.8 6 Norte 12 Norte 0 -- -- 72
2019-04-14 07:00:00 13.7 9 Norte 13 Norte 0 -- -- 75
2019-04-14 06:00:00 14.1 0 Calma 12 Nordeste 0 -- -- 74
2019-04-14 05:00:00 14.2 4 Nordeste 10 Norte 0 -- -- 73
2019-04-14 04:00:00 14.7 4 Sudeste 15 Norte 0 -- -- 72
2019-04-14 03:00:00 15.2 8 Norte 13 Norte 0 -- -- 72
2019-04-14 02:00:00 15 5 Norte 8 Norte 0 -- -- 75
2019-04-14 01:00:00 15.3 5 Norte 8 Norte 0 -- -- 74
2019-04-14 00:00:00 16.5 0 Calma 14 Norte 0 -- -- 74
2019-04-13 23:00:00 16.8 8 Norte 19 Norte 0 -- -- 70
2019-04-13 22:00:00 17.5 13 Norte 27 Nordeste 0 -- -- 66
2019-04-13 21:00:00 18.4 16 Nordeste 27 Nordeste 0 -- -- 64
2019-04-13 20:00:00 19.5 18 Nordeste 27 Nordeste 0 -- -- 61
2019-04-13 19:00:00 21.7 15 Nordeste 24 Nordeste 0 -- -- 55
2019-04-13 18:00:00 25.8 15 Sur 30 Sur 0 -- -- 46
2019-04-13 17:00:00 25.1 22 Sur 35 Sur 0 -- -- 46
2019-04-13 16:00:00 26.3 23 Sur 32 Sur 0 -- -- 38
2019-04-13 15:00:00 25.7 22 Sur 32 Sur 0 -- -- 41
2019-04-13 14:00:00 25.2 19 Sur 31 Sur 0 -- -- 43
2019-04-13 13:00:00 23.9 20 Sur 28 Sur 0 -- -- 49
2019-04-13 12:00:00 22.1 22 Sur 29 Sur 0 -- -- 54
2019-04-13 11:00:00 21.4 13 Sur 17 Sur 0 -- -- 51
2019-04-13 10:00:00 17.6 8 Sur 15 Nordeste 0 -- -- 53
2019-04-13 09:00:00 14.8 4 Norte 22 Nordeste 0 -- -- 61
2019-04-13 08:00:00 14 4 Norte 15 Nordeste 0 -- -- 71
2019-04-13 07:00:00 14.4 5 Sur 15 Norte 0 -- -- 69
2019-04-13 06:00:00 14.1 5 Sur 10 Sudoeste 0 -- -- 65
2019-04-13 05:00:00 14.6 5 Sur 18 Nordeste 0 -- -- 61
2019-04-13 04:00:00 16.1 16 Nordeste 30 Este 0 -- -- 54
2019-04-13 03:00:00 16 16 Nordeste 39 Norte 0 -- -- 56
2019-04-13 02:00:00 16 22 Norte 36 Norte 0 -- -- 56
2019-04-13 01:00:00 15.9 9 Norte 36 Nordeste 0 -- -- 55
2019-04-13 00:00:00 16.3 19 Nordeste 39 Norte 0 -- -- 50
2019-04-12 23:00:00 15.8 20 Norte 37 Norte 0 -- -- 58
2019-04-12 22:00:00 16 14 Norte 31 Norte 0 -- -- 60
2019-04-12 21:00:00 16.4 16 Norte 31 Norte 0 -- -- 58
2019-04-12 20:00:00 17.3 23 Norte 40 Norte 0 -- -- 58
2019-04-12 19:00:00 18.7 23 Norte 34 Norte 0 -- -- 53
2019-04-12 18:00:00 19 24 Norte 39 Norte 0 -- -- 53
2019-04-12 17:00:00 21.9 11 Oeste 40 Sur 0 -- -- 48
2019-04-12 16:00:00 24.6 21 Sur 36 Sur 0 -- -- 43
2019-04-12 15:00:00 19.9 23 Noroeste 43 Norte 0 -- -- 49
2019-04-12 14:00:00 20.4 17 Norte 42 Norte 0 -- -- 50
2019-04-12 13:00:00 22.9 16 Sur 31 Sur 0 -- -- 52
2019-04-12 12:00:00 21.3 19 Sur 33 Sur 0 -- -- 56
2019-04-12 11:00:00 18.9 7 Sudoeste 39 Norte 0 -- -- 57
2019-04-12 10:00:00 17.2 10 Norte 29 Norte 0 -- -- 55
2019-04-12 09:00:00 15.9 24 Norte 41 Noroeste 0 -- -- 61
2019-04-12 08:00:00 15.3 15 Norte 43 Norte 0 -- -- 57
2019-04-12 07:00:00 15.7 23 Norte 60 Noroeste 0 -- -- 58
2019-04-12 06:00:00 15.7 33 Norte 58 Norte 0 -- -- 60
2019-04-12 05:00:00 15.6 23 Norte 53 Norte 0 -- -- 58
2019-04-12 04:00:00 15.4 18 Norte 51 Norte 0 -- -- 60
2019-04-12 03:00:00 15.5 24 Norte 48 Norte 0 -- -- 61
2019-04-12 02:00:00 15.6 28 Norte 56 Norte 0 -- -- 61
2019-04-12 01:00:00 16 23 Norte 48 Nordeste 0 -- -- 58
2019-04-12 00:00:00 16.3 21 Norte 51 Norte 0 -- -- 54
2019-04-11 23:00:00 16.6 26 Norte 59 Norte 0 -- -- 55
2019-04-11 22:00:00 16.5 29 Norte 48 Norte 0 -- -- 56
2019-04-11 21:00:00 16.7 21 Norte 36 Norte 0 -- -- 54
2019-04-11 20:00:00 18 18 Norte 42 Norte 0 -- -- 45
2019-04-11 19:00:00 18.5 25 Norte 43 Noroeste 0 -- -- 53
2019-04-11 18:00:00 18.9 23 Norte 42 Noroeste 0 -- -- 55
2019-04-11 17:00:00 19.1 28 Norte 44 Norte 0 -- -- 56
2019-04-11 16:00:00 23.8 15 Sur 30 Sur 0 -- -- 48
2019-04-11 15:00:00 23.8 19 Sur 30 Sur 0 -- -- 49
2019-04-11 14:00:00 23.6 21 Sur 30 Sur 0 -- -- 49
2019-04-11 13:00:00 21.8 23 Sur 30 Sur 0 -- -- 52
2019-04-11 12:00:00 18.7 18 Norte 29 Norte 0 -- -- 51
2019-04-11 11:00:00 17.7 17 Noroeste 32 Norte 0 -- -- 50
2019-04-11 10:00:00 16.8 14 Norte 36 Norte 0 -- -- 53
2019-04-11 09:00:00 15.3 19 Norte 39 Norte 0 -- -- 56
2019-04-11 08:00:00 15.1 17 Norte 33 Norte 0 -- -- 58
2019-04-11 07:00:00 15.2 17 Norte 39 Norte 0 -- -- 60
2019-04-11 06:00:00 15.1 17 Norte 37 Norte 0 -- -- 57
2019-04-11 05:00:00 15.2 17 Norte 42 Norte 0 -- -- 58
2019-04-11 04:00:00 15.3 30 Norte 47 Norte 0 -- -- 57
2019-04-11 03:00:00 15.2 25 Norte 45 Norte 0 -- -- 58
2019-04-11 02:00:00 15.2 19 Norte 33 Norte 0 -- -- 58
2019-04-11 01:00:00 15 11 Nordeste 24 Nordeste 0 -- -- 63
2019-04-11 00:00:00 15.6 14 Nordeste 24 Nordeste 0 -- -- 64
2019-04-10 23:00:00 16 11 Nordeste 23 Nordeste 0 -- -- 61
2019-04-10 22:00:00 16.2 14 Nordeste 32 Norte 0 -- -- 55
2019-04-10 21:00:00 16.5 21 Norte 42 Norte 0 -- -- 58
2019-04-10 20:00:00 17.2 23 Norte 39 Norte 0 -- -- 57
2019-04-10 19:00:00 18.9 26 Norte 45 Norte 0 -- -- 54
2019-04-10 18:00:00 20.6 17 Norte 37 Noroeste 0 -- -- 47
2019-04-10 17:00:00 20.2 21 Norte 36 Norte 0 -- -- 49
2019-04-10 16:00:00 19.9 20 Norte 35 Norte 0 -- -- 52
2019-04-10 15:00:00 20 22 Norte 34 Norte 0 -- -- 51
2019-04-10 14:00:00 23.8 18 Sur 31 Sur 0 -- -- 46
2019-04-10 13:00:00 23 19 Sur 30 Sur 0 -- -- 47
2019-04-10 12:00:00 21 19 Sur 28 Noroeste 0 -- -- 53
2019-04-10 11:00:00 17.8 17 Noroeste 35 Noroeste 0 -- -- 49
2019-04-10 10:00:00 16.9 11 Nordeste 34 Norte 0 -- -- 53
2019-04-10 09:00:00 15.3 15 Norte 28 Norte 0 -- -- 59
2019-04-10 08:00:00 14 4 Este 8 Este 0 -- -- 62
2019-04-10 07:00:00 14.5 7 Nordeste 17 Norte 0 -- -- 60
2019-04-10 06:00:00 14.5 7 Nordeste 19 Nordeste 0 -- -- 59
2019-04-10 05:00:00 14.4 7 Nordeste 18 Nordeste 0 -- -- 62
2019-04-10 04:00:00 14.3 8 Nordeste 21 Este 0 -- -- 65
2019-04-10 03:00:00 14.6 11 Nordeste 14 Nordeste 0 -- -- 64
2019-04-10 02:00:00 15.6 10 Nordeste 22 Nordeste 0 -- -- 59
2019-04-10 01:00:00 15.5 14 Norte 27 Norte 0 -- -- 58
2019-04-10 00:00:00 14.9 10 Nordeste 19 Nordeste 0 -- -- 65
2019-04-09 23:00:00 15.4 10 Norte 19 Nordeste 0 -- -- 62
2019-04-09 22:00:00 15.9 10 Norte 27 Nordeste 0 -- -- 61
2019-04-09 21:00:00 16.8 14 Norte 27 Norte 0 -- -- 62
2019-04-09 20:00:00 18.1 13 Norte 25 Norte 0 -- -- 62
2019-04-09 19:00:00 18.8 12 Norte 21 Norte 0 -- -- 64
2019-04-09 18:00:00 21.6 10 Sur 28 Sur 0 -- -- 55
2019-04-09 17:00:00 23 17 Sur 28 Sur 0 -- -- 51
2019-04-09 16:00:00 22.7 17 Sur 27 Sur 0 -- -- 53
2019-04-09 15:00:00 24.7 18 Sur 28 Sur 0 -- -- 46
2019-04-09 14:00:00 21.4 20 Sur 29 Sur 0 -- -- 55
2019-04-09 13:00:00 21.3 21 Sur 31 Sur 0 -- -- 53
2019-04-09 12:00:00 20.6 21 Sur 31 Sur 0 -- -- 56
2019-04-09 11:00:00 16.6 5 Sur 6 Sur 0 -- -- 72
2019-04-09 10:00:00 14.1 0 Calma 5 Norte 0 -- -- 77
2019-04-09 09:00:00 12.9 3 Norte 14 Norte 0 -- -- 76
2019-04-09 08:00:00 13.1 10 Nordeste 13 Norte 0 -- -- 75
2019-04-09 07:00:00 13.3 8 Norte 11 Norte 0 -- -- 75
2019-04-09 06:00:00 13.5 9 Norte 13 Norte 0 -- -- 73
2019-04-09 05:00:00 14.1 6 Nordeste 12 Norte 0 -- -- 70
2019-04-09 04:00:00 13.7 8 Norte 12 Norte 0 -- -- 71
2019-04-09 03:00:00 13.6 8 Norte 14 Norte 0 -- -- 71
2019-04-09 02:00:00 14.5 7 Norte 16 Nordeste 0 -- -- 66
2019-04-09 01:00:00 14.9 8 Norte 14 Nordeste 0 -- -- 66
2019-04-09 00:00:00 15.2 10 Norte 20 Norte 0 -- -- 67
2019-04-08 23:00:00 15.7 12 Nordeste 22 Norte 0 -- -- 67
2019-04-08 22:00:00 16 10 Norte 28 Norte 0 -- -- 69
2019-04-08 21:00:00 16.4 16 Norte 33 Norte 0 -- -- 70
2019-04-08 20:00:00 16.9 21 Norte 32 Norte 0 -- -- 70
2019-04-08 19:00:00 17.5 20 Norte 27 Norte 0 -- -- 68
2019-04-08 18:00:00 19.9 17 Sur 26 Sur 0 -- -- 65
2019-04-08 17:00:00 21 17 Sur 27 Sur 0 -- -- 60
2019-04-08 16:00:00 21.6 20 Sur 29 Sur 0 -- -- 56
2019-04-08 15:00:00 21.2 11 Sur 28 Norte 0 -- -- 54
2019-04-08 14:00:00 19.9 14 Nordeste 25 Norte 0 -- -- 58
2019-04-08 13:00:00 19.2 17 Norte 32 Norte 0 -- -- 58
2019-04-08 12:00:00 18.2 15 Norte 32 Norte 0 -- -- 62
2019-04-08 11:00:00 16.9 22 Norte 31 Norte 0 -- -- 65
2019-04-08 10:00:00 16.6 8 Este 14 Nordeste 0 -- -- 66
2019-04-08 09:00:00 14.6 4 Norte 13 Norte 0 -- -- 74
2019-04-08 08:00:00 14.6 8 Norte 12 Nordeste 0 -- -- 74
2019-04-08 07:00:00 14.8 8 Nordeste 14 Norte 0 -- -- 71
2019-04-08 06:00:00 15.3 8 Norte 24 Norte 0 -- -- 72
2019-04-08 05:00:00 15.1 9 Norte 18 Norte 0 -- -- 74
2019-04-08 04:00:00 15.2 7 Nordeste 14 Nordeste 0 -- -- 71
2019-04-08 03:00:00 15.4 9 Nordeste 27 Norte 0 -- -- 69
2019-04-08 02:00:00 15 5 Nordeste 15 Nordeste 0 -- -- 69
2019-04-08 01:00:00 14.7 4 Norte 8 Norte 0 -- -- 70
2019-04-08 00:00:00 15.3 3 Nordeste 14 Nordeste 0 -- -- 69
2019-04-07 23:00:00 15.6 6 Nordeste 15 Este 0 -- -- 71
2019-04-07 22:00:00 16 10 Norte 23 Norte 0 -- -- 73
2019-04-07 21:00:00 16.5 19 Norte 30 Norte 0 -- -- 71
2019-04-07 20:00:00 17.7 15 Norte 24 Norte 0 -- -- 66
2019-04-07 19:00:00 19 12 Norte 24 Noroeste 0 -- -- 61
2019-04-07 18:00:00 20.3 12 Noroeste 27 Norte 0 -- -- 56
2019-04-07 17:00:00 20.3 19 Norte 30 Sur 0 -- -- 54
2019-04-07 16:00:00 24.3 14 Sur 29 Sur 0 -- -- 43
2019-04-07 15:00:00 24.9 19 Sur 29 Sur 0 -- -- 41
2019-04-07 14:00:00 23.8 22 Sur 32 Sur 0 -- -- 42
2019-04-07 13:00:00 22.5 21 Sur 32 Sur 0 -- -- 45
2019-04-07 12:00:00 20.9 21 Sur 27 Sur 0 -- -- 49
2019-04-07 11:00:00 17.9 8 Este 17 Este 0 -- -- 57
2019-04-07 10:00:00 15.5 0 Calma 10 Norte 0 -- -- 65
2019-04-07 09:00:00 13.4 7 Norte 10 Norte 0 -- -- 70
2019-04-07 08:00:00 13 7 Norte 10 Norte 0 -- -- 73
2019-04-07 07:00:00 12.7 6 Norte 10 Norte 0 -- -- 72
2019-04-07 06:00:00 13.5 7 Norte 18 Nordeste 0 -- -- 69
2019-04-07 05:00:00 13.3 8 Norte 13 Nordeste 0 -- -- 71
2019-04-07 04:00:00 14.4 8 Nordeste 17 Nordeste 0 -- -- 65
2019-04-07 03:00:00 14.5 12 Nordeste 18 Nordeste 0 -- -- 66
2019-04-07 02:00:00 14.7 10 Nordeste 22 Norte 0 -- -- 66
2019-04-07 01:00:00 15 11 Norte 26 Norte 0 -- -- 61
2019-04-07 00:00:00 15.3 16 Norte 30 Noroeste 0 -- -- 60
2019-04-06 23:00:00 15.4 16 Norte 29 Norte 0 -- -- 59
2019-04-06 22:00:00 15.5 15 Norte 27 Norte 0 -- -- 67
2019-04-06 21:00:00 15.6 17 Norte 31 Norte 0 -- -- 67
2019-04-06 20:00:00 16.4 16 Norte 40 Nordeste 0 -- -- 58
2019-04-06 19:00:00 17.9 19 Norte 43 Norte 0 -- -- 50
2019-04-06 18:00:00 18.2 26 Norte 50 Norte 0 -- -- 53
2019-04-06 17:00:00 18.7 29 Norte 61 Noroeste 0 -- -- 52
2019-04-06 16:00:00 18 32 Norte 48 Norte 0 -- -- 57
2019-04-06 15:00:00 18.4 21 Norte 42 Nordeste 0 -- -- 51
2019-04-06 14:00:00 17.8 26 Norte 44 Norte 0 -- -- 54
2019-04-06 13:00:00 17.3 27 Norte 46 Norte 0 -- -- 53
2019-04-06 12:00:00 16 17 Norte 46 Nordeste 0 -- -- 67
2019-04-06 11:00:00 16.6 22 Norte 46 Nordeste 0 -- -- 55
2019-04-06 10:00:00 15.3 16 Norte 36 Norte 0 -- -- 59
2019-04-06 09:00:00 14.8 16 Norte 49 Norte 0 -- -- 64
2019-04-06 08:00:00 14.6 21 Nordeste 45 Nordeste 0 -- -- 67
2019-04-06 07:00:00 14.7 31 Nordeste 56 Nordeste 0 -- -- 60
2019-04-06 06:00:00 14.8 33 Nordeste 55 Nordeste 0 -- -- 56
2019-04-06 05:00:00 14.4 24 Norte 59 Nordeste 0 -- -- 61
2019-04-06 04:00:00 14.7 23 Nordeste 59 Nordeste 0 -- -- 66
2019-04-06 03:00:00 14.3 28 Norte 58 Norte 0.2 -- -- 70
2019-04-06 02:00:00 15.1 21 Norte 51 Nordeste 0 -- -- 67
2019-04-06 01:00:00 15 25 Norte 56 Noroeste 0 -- -- 69
2019-04-06 00:00:00 15.3 18 Norte 54 Norte 0 -- -- 66
2019-04-05 23:00:00 15.4 26 Norte 53 Nordeste 0 -- -- 60
2019-04-05 22:00:00 15.7 16 Norte 50 Nordeste 0 -- -- 61
2019-04-05 21:00:00 15.8 22 Norte 44 Nordeste 0 -- -- 67
2019-04-05 20:00:00 16.4 12 Noroeste 41 Nordeste 0 -- -- 67
2019-04-05 19:00:00 16.6 19 Norte 50 Nordeste 0 -- -- 65
2019-04-05 18:00:00 17.4 17 Norte 58 Noroeste 0 -- -- 64
2019-04-05 17:00:00 19.6 21 Norte 43 Norte 0 -- -- 50
2019-04-05 16:00:00 19.7 25 Norte 46 Norte 0 -- -- 43
2019-04-05 15:00:00 19.4 20 Norte 49 Noroeste 0 -- -- 47
2019-04-05 14:00:00 19.2 27 Norte 42 Noroeste 0 -- -- 47
2019-04-05 13:00:00 19.1 24 Norte 42 Noroeste 0 -- -- 49
2019-04-05 12:00:00 17.8 19 Noroeste 44 Noroeste 0 -- -- 50
2019-04-05 11:00:00 16.7 22 Noroeste 36 Noroeste 0 -- -- 55
2019-04-05 10:00:00 15.8 19 Norte 40 Noroeste 0 -- -- 63
2019-04-05 09:00:00 14.9 14 Norte 36 Nordeste 0 -- -- 62
2019-04-05 08:00:00 14.6 18 Norte 33 Norte 0 -- -- 69
2019-04-05 07:00:00 14.7 14 Norte 33 Nordeste 0 -- -- 65
2019-04-05 06:00:00 14.6 13 Norte 38 Nordeste 0 -- -- 63
2019-04-05 05:00:00 14.5 15 Norte 36 Norte 0 -- -- 63
2019-04-05 04:00:00 14.7 20 Norte 37 Noroeste 0 -- -- 67
2019-04-05 03:00:00 14.7 17 Norte 37 Noroeste 0 -- -- 67
2019-04-05 02:00:00 14.9 17 Norte 35 Nordeste 0 -- -- 68
2019-04-05 01:00:00 15.2 19 Norte 33 Nordeste 0 -- -- 64
2019-04-05 00:00:00 15.1 13 Norte 23 Noroeste 0 -- -- 69
2019-04-04 23:00:00 15.3 15 Noroeste 33 Noroeste 0 -- -- 69
2019-04-04 22:00:00 15.5 19 Norte 46 Norte 0 -- -- 64
2019-04-04 21:00:00 15.7 13 Norte 35 Norte 0 -- -- 64
2019-04-04 20:00:00 16.1 25 Norte 39 Norte 0 -- -- 66
2019-04-04 19:00:00 17.6 23 Norte 50 Norte 0 -- -- 60
2019-04-04 18:00:00 18.4 30 Norte 48 Noroeste 0 -- -- 56
2019-04-04 17:00:00 19.1 19 Norte 40 Norte 0 -- -- 53
2019-04-04 16:00:00 18.2 21 Noroeste 41 Norte 0 -- -- 59
2019-04-04 15:00:00 18.7 14 Norte 45 Noroeste 0 -- -- 55
2019-04-04 14:00:00 18.4 28 Norte 43 Noroeste 0 -- -- 57
2019-04-04 13:00:00 17.2 20 Norte 38 Norte 0 -- -- 65
2019-04-04 12:00:00 16.9 18 Norte 42 Norte 0 -- -- 67
2019-04-04 11:00:00 16.5 14 Norte 30 Nordeste 0 -- -- 69
2019-04-04 10:00:00 15.1 10 Nordeste 17 Nordeste 0 -- -- 76
2019-04-04 09:00:00 13.5 7 Norte 13 Nordeste 0 -- -- 85
2019-04-04 08:00:00 13.9 8 Norte 18 Noroeste 0.4 -- -- 84
2019-04-04 07:00:00 14.4 2 Sudeste 20 Sur 0 -- -- 81
2019-04-04 06:00:00 14.1 3 Sur 13 Sur 0 -- -- 77
2019-04-04 05:00:00 13.7 2 Nordeste 12 Nordeste 0 -- -- 75
2019-04-04 04:00:00 14.4 2 Nordeste 8 Norte 0 -- -- 75
2019-04-04 03:00:00 14.3 6 Norte 19 Norte 0 -- -- 74
2019-04-04 02:00:00 14.9 3 Norte 12 Norte 0 -- -- 73
2019-04-04 01:00:00 15.4 5 Nordeste 12 Noroeste 0 -- -- 68
2019-04-04 00:00:00 15.8 6 Norte 16 Norte 0 -- -- 64
2019-04-03 23:00:00 16.2 12 Norte 31 Norte 0 -- -- 64
2019-04-03 22:00:00 16.3 18 Norte 40 Nordeste 0 -- -- 65
2019-04-03 21:00:00 16.6 25 Norte 43 Norte 0 -- -- 62
2019-04-03 20:00:00 17.2 14 Norte 28 Nordeste 0 -- -- 57
2019-04-03 19:00:00 18.8 10 Sur 29 Sur 0 -- -- 63
2019-04-03 18:00:00 20.5 17 Sur 35 Sur 0 -- -- 56
2019-04-03 17:00:00 22.7 22 Sur 40 Sur 0 -- -- 48
2019-04-03 16:00:00 22.2 21 Sur 41 Sur 0 -- -- 49
2019-04-03 15:00:00 22.5 21 Sur 38 Sur 0 -- -- 48
2019-04-03 14:00:00 21.6 23 Sur 31 Sur 0 -- -- 52
2019-04-03 13:00:00 19.1 15 Sur 22 Sur 0 -- -- 72
2019-04-03 12:00:00 15.6 6 Este 50 Sur 2.8 -- -- 74
2019-04-03 11:00:00 18 15 Sur 25 Sur 0 -- -- 77
2019-04-03 10:00:00 14.8 2 Nordeste 8 Norte 0 -- -- 80
2019-04-03 09:00:00 14 4 Norte 9 Norte 0 -- -- 81
2019-04-03 08:00:00 13.8 5 Norte 11 Norte 0 -- -- 80
2019-04-03 07:00:00 14 6 Norte 12 Nordeste 0 -- -- 80
2019-04-03 06:00:00 14.6 4 Norte 12 Norte 0 -- -- 81
2019-04-03 05:00:00 14.4 0 Calma 10 Norte 0 -- -- 80
2019-04-03 04:00:00 14.4 8 Norte 11 Norte 0 -- -- 81
2019-04-03 03:00:00 14.8 6 Norte 11 Norte 0 -- -- 81
2019-04-03 02:00:00 15.1 6 Norte 14 Nordeste 0 -- -- 80
2019-04-03 01:00:00 15.1 6 Norte 12 Norte 0 -- -- 78
2019-04-03 00:00:00 15.4 8 Norte 15 Nordeste 0 -- -- 78
2019-04-02 23:00:00 16 10 Norte 14 Nordeste 0 -- -- 75
2019-04-02 22:00:00 16.2 13 Nordeste 24 Este 0 -- -- 75
2019-04-02 21:00:00 17.2 7 Norte 14 Nordeste 0 -- -- 68
2019-04-02 20:00:00 17.6 8 Este 25 Norte 0 -- -- 69
2019-04-02 19:00:00 18.3 17 Norte 25 Norte 0 -- -- 70
2019-04-02 18:00:00 18.6 15 Norte 28 Sur 0 -- -- 70
2019-04-02 17:00:00 22.2 19 Sur 41 Sur 0 -- -- 57
2019-04-02 16:00:00 24.6 24 Sur 34 Sur 0 -- -- 45
2019-04-02 15:00:00 24.4 22 Sur 32 Sur 0 -- -- 43
2019-04-02 14:00:00 22.5 21 Sur 34 Sur 0 -- -- 49
2019-04-02 13:00:00 20.6 15 Sur 29 Sur 0 -- -- 52
2019-04-02 12:00:00 21.3 12 Sur 27 Sur 0 -- -- 45
2019-04-02 11:00:00 18.9 6 Sur 10 Sudeste 0 -- -- 57
2019-04-02 10:00:00 14.9 0 Calma 8 Norte 0 -- -- 79
2019-04-02 09:00:00 13.6 5 Norte 10 Norte 0 -- -- 82
2019-04-02 08:00:00 13.6 4 Norte 9 Norte 0 -- -- 82
2019-04-02 07:00:00 14.1 6 Nordeste 9 Norte 0 -- -- 82
2019-04-02 06:00:00 14 4 Nordeste 7 Norte 0 -- -- 81
2019-04-02 05:00:00 14.4 3 Este 8 Norte 0 -- -- 77
2019-04-02 04:00:00 14.4 5 Norte 9 Nordeste 0 -- -- 78
2019-04-02 03:00:00 14.7 5 Norte 8 Nordeste 0 -- -- 80
2019-04-02 02:00:00 14.9 4 Norte 9 Norte 0 -- -- 80
2019-04-02 01:00:00 15.3 2 Sur 7 Sudeste 0 -- -- 80
2019-04-02 00:00:00 15.7 2 Sur 10 Sur 0 -- -- 78
2019-04-01 23:00:00 15.7 7 Sur 13 Sudeste 0 -- -- 77
2019-04-01 22:00:00 16.1 5 Sur 14 Sur 0 -- -- 74
2019-04-01 21:00:00 16.7 9 Sur 14 Sur 0 -- -- 71
2019-04-01 20:00:00 17.7 10 Sur 18 Sur 0 -- -- 67
2019-04-01 19:00:00 19 14 Sur 26 Sur 0 -- -- 64
2019-04-01 18:00:00 20.3 14 Sur 26 Sur 0 -- -- 59
2019-04-01 17:00:00 21.1 16 Sur 27 Sur 0 -- -- 57
2019-04-01 16:00:00 21.9 20 Sur 32 Sur 0 -- -- 50
2019-04-01 15:00:00 22.2 19 Sur 28 Sur 0 -- -- 47
2019-04-01 14:00:00 19.5 17 Sur 29 Sur 0 -- -- 53
2019-04-01 13:00:00 18.9 17 Sur 30 Sur 0 -- -- 55
2019-04-01 12:00:00 20 17 Sur 25 Sur 0 -- -- 54
2019-04-01 11:00:00 20 10 Sur 15 Sur 0 -- -- 56
2019-04-01 10:00:00 15.9 3 Nordeste 5 Nordeste 0 -- -- 65
2019-04-01 09:00:00 14.1 0 Calma 14 Nordeste 0 -- -- 70
2019-04-01 08:00:00 13.8 6 Norte 12 Norte 0 -- -- 72
2019-04-01 07:00:00 13.7 4 Norte 7 Norte 0 -- -- 74
2019-04-01 06:00:00 13.9 0 Calma 6 Norte 0 -- -- 76
2019-04-01 05:00:00 13.9 4 Norte 8 Nordeste 0 -- -- 76
2019-04-01 04:00:00 14.6 3 Nordeste 7 Norte 0 -- -- 75
2019-04-01 03:00:00 14.4 5 Norte 10 Nordeste 0 -- -- 72
2019-04-01 02:00:00 14.5 3 Norte 7 Norte 0 -- -- 73
2019-04-01 01:00:00 15 3 Norte 19 Nordeste 0 -- -- 71
2019-04-01 00:00:00 15.7 12 Nordeste 18 Nordeste 0 -- -- 69
2019-03-31 23:00:00 15.5 5 Norte 19 Nordeste 0 -- -- 71
2019-03-31 22:00:00 16.1 14 Nordeste 23 Este 0 -- -- 71
2019-03-31 21:00:00 16.4 13 Este 24 Nordeste 0 -- -- 69
2019-03-31 20:00:00 17.2 12 Norte 23 Norte 0 -- -- 64
2019-03-31 19:00:00 18.4 10 Sudoeste 18 Sur 0 -- -- 71
2019-03-31 18:00:00 18.5 12 Sur 24 Sur 0 -- -- 67
2019-03-31 17:00:00 19.2 15 Sur 27 Sur 0 -- -- 64
2019-03-31 16:00:00 20.7 16 Sur 24 Sur 0 -- -- 60
2019-03-31 15:00:00 19.7 17 Sur 31 Sur 0 -- -- 59
2019-03-31 14:00:00 21.9 22 Sur 33 Sur 0 -- -- 51
2019-03-31 13:00:00 22.2 22 Sur 29 Sur 0 -- -- 48
2019-03-31 12:00:00 20.8 16 Sur 23 Sur 0 -- -- 53
2019-03-31 11:00:00 19 11 Sur 18 Sur 0 -- -- 55
2019-03-31 10:00:00 14.8 3 Nordeste 11 Norte 0 -- -- 60
2019-03-31 09:00:00 12.5 6 Norte 12 Norte 0 -- -- 66
2019-03-31 08:00:00 12.4 5 Norte 11 Norte 0 -- -- 62
2019-03-31 07:00:00 12.4 3 Norte 9 Norte 0 -- -- 62
2019-03-31 06:00:00 13 0 Calma 10 Norte 0 -- -- 63
2019-03-31 05:00:00 13.2 8 Norte 12 Norte 0 -- -- 65
2019-03-31 04:00:00 12.7 7 Norte 11 Norte 0 -- -- 71
2019-03-31 00:00:00 13.9 6 Norte 8 Norte 0 -- -- 68
2019-03-30 23:00:00 14.3 0 Calma 9 Nordeste 0 -- -- 72
2019-03-30 22:00:00 14.6 3 Nordeste 15 Este 0 -- -- 73
2019-03-30 21:00:00 15.3 8 Nordeste 14 Este 0 -- -- 73
2019-03-30 20:00:00 15.8 6 Norte 17 Norte 0 -- -- 72
2019-03-30 19:00:00 16.9 14 Nordeste 21 Nordeste 0 -- -- 64
2019-03-30 18:00:00 17.9 8 Sur 21 Sur 0 -- -- 60
2019-03-30 17:00:00 17.7 17 Sur 28 Sur 0 -- -- 67
2019-03-30 16:00:00 18 21 Sur 30 Sur 0 -- -- 64
2019-03-30 15:00:00 19.5 22 Sur 34 Sur 0 -- -- 58
2019-03-30 14:00:00 22.3 23 Sur 34 Sur 0 -- -- 50
2019-03-30 13:00:00 20.7 10 Sur 28 Sur 0 -- -- 53
2019-03-30 12:00:00 18.8 13 Noroeste 27 Noroeste 0 -- -- 47
2019-03-30 11:00:00 17.9 16 Norte 30 Norte 0 -- -- 53
2019-03-30 10:00:00 16.2 10 Nordeste 23 Norte 0 -- -- 63
2019-03-30 09:00:00 14 15 Nordeste 29 Nordeste 0 -- -- 77
2019-03-30 08:00:00 14.6 12 Nordeste 27 Norte 0 -- -- 72
2019-03-30 07:00:00 13.6 7 Nordeste 18 Norte 0 -- -- 75
2019-03-30 06:00:00 13 6 Norte 10 Norte 0 -- -- 74
2019-03-30 05:00:00 12.9 6 Norte 11 Norte 0 -- -- 74
2019-03-30 04:00:00 12.6 7 Norte 14 Norte 0 -- -- 75
2019-03-30 03:00:00 13.4 9 Norte 15 Norte 0 -- -- 74
2019-03-30 02:00:00 13.4 10 Norte 13 Nordeste 0 -- -- 75
2019-03-30 01:00:00 13.3 6 Norte 12 Norte 0 -- -- 75
2019-03-30 00:00:00 14.1 7 Norte 9 Norte 0 -- -- 74
2019-03-29 23:00:00 14.7 4 Norte 17 Nordeste 0 -- -- 73
2019-03-29 22:00:00 15.4 9 Norte 20 Norte 0 -- -- 72
2019-03-29 21:00:00 15.9 8 Noroeste 13 Nordeste 0 -- -- 68
2019-03-29 20:00:00 16.4 8 Noroeste 18 Sudoeste 0 -- -- 66
2019-03-29 19:00:00 16.9 10 Oeste 25 Sur 0 -- -- 66
2019-03-29 18:00:00 18.6 18 Sur 29 Sudoeste 0 -- -- 67
2019-03-29 17:00:00 19.3 17 Sur 32 Sur 0 -- -- 63
2019-03-29 16:00:00 22.6 24 Sur 31 Sur 0 -- -- 55
2019-03-29 15:00:00 22.2 23 Sur 29 Sur 0 -- -- 54
2019-03-29 14:00:00 22.4 19 Sur 31 Sur 0 -- -- 52
2019-03-29 13:00:00 22 22 Sur 33 Sur 0 -- -- 55
2019-03-29 12:00:00 18.4 18 Sur 25 Sur 0 -- -- 69
2019-03-29 11:00:00 18 12 Sur 22 Sur 0 -- -- 72
2019-03-29 10:00:00 18.1 8 Sur 14 Sur 0.2 -- -- 73
2019-03-29 09:00:00 14.7 0 Calma 8 Norte 0 -- -- 86
2019-03-29 08:00:00 12.2 4 Norte 12 Norte 0 -- -- 87
2019-03-29 07:00:00 12.1 6 Norte 10 Norte 0 -- -- 87
2019-03-29 06:00:00 12.5 10 Norte 15 Norte 0 -- -- 88
2019-03-29 05:00:00 12.7 5 Norte 13 Norte 0 -- -- 87
2019-03-29 04:00:00 13.3 10 Norte 13 Nordeste 0 -- -- 90
2019-03-29 03:00:00 12.8 2 Norte 10 Norte 0 -- -- 89
2019-03-29 02:00:00 13.4 5 Nordeste 10 Norte 0 -- -- 89
2019-03-29 01:00:00 13.5 4 Norte 9 Norte 0 -- -- 89
2019-03-29 00:00:00 14.1 4 Norte 9 Norte 0 -- -- 88
2019-03-28 23:00:00 14.4 3 Nordeste 9 Norte 0 -- -- 87
2019-03-28 22:00:00 14.6 4 Norte 8 Nordeste 0 -- -- 86
2019-03-28 21:00:00 15.4 3 Norte 14 Sur 0 -- -- 84
2019-03-28 20:00:00 15.8 8 Sur 15 Sur 0 -- -- 84
2019-03-28 19:00:00 16.2 0 Calma 19 Sur 0.2 -- -- 83
2019-03-28 18:00:00 16.4 7 Sur 18 Sur 1.2 -- -- 80
2019-03-28 17:00:00 18.2 8 Sur 26 Sur 0 -- -- 70
2019-03-28 16:00:00 19.5 21 Sur 31 Sur 0 -- -- 65
2019-03-28 15:00:00 22.3 21 Sur 30 Sur 0 -- -- 57
2019-03-28 14:00:00 22.8 20 Sur 30 Sur 0 -- -- 55
2019-03-28 13:00:00 19.3 18 Sur 25 Sur 0 -- -- 69
2019-03-28 12:00:00 18.4 15 Sur 24 Sur 0 -- -- 71
2019-03-28 11:00:00 17.6 14 Sur 23 Sur 0 -- -- 73
2019-03-28 10:00:00 17.5 8 Sur 15 Sur 0 -- -- 72
2019-03-28 09:00:00 14.6 0 Calma 10 Nordeste 0 -- -- 81
2019-03-28 08:00:00 13.4 8 Norte 12 Norte 0 -- -- 82
2019-03-28 07:00:00 12.8 9 Norte 13 Norte 0 -- -- 82
2019-03-28 06:00:00 13.1 6 Norte 9 Norte 0 -- -- 80
2019-03-28 05:00:00 13.6 4 Norte 8 Norte 0 -- -- 80
2019-03-28 04:00:00 13.4 5 Nordeste 12 Nordeste 0 -- -- 82
2019-03-28 03:00:00 14.1 9 Norte 12 Nordeste 0 -- -- 81
2019-03-28 02:00:00 13.7 4 Norte 8 Norte 0 -- -- 82
2019-03-28 01:00:00 14.2 6 Norte 11 Norte 0 -- -- 81
2019-03-28 00:00:00 14.6 0 Calma 9 Norte 0 -- -- 78
2019-03-27 23:00:00 15.2 7 Norte 12 Norte 0 -- -- 76
2019-03-27 22:00:00 15.9 8 Nordeste 16 Norte 0 -- -- 75
2019-03-27 21:00:00 16.2 7 Nordeste 18 Norte 0 -- -- 74
2019-03-27 20:00:00 16.9 10 Nordeste 20 Norte 0 -- -- 72
2019-03-27 19:00:00 18.3 7 Sur 18 Sur 0 -- -- 66
2019-03-27 18:00:00 19.3 7 Sur 18 Sur 0 -- -- 61
2019-03-27 17:00:00 18.4 13 Norte 23 Sur 0 -- -- 61
2019-03-27 16:00:00 21.5 13 Sur 22 Sur 0 -- -- 59
2019-03-27 15:00:00 23.5 14 Sur 26 Sur 0 -- -- 55
2019-03-27 14:00:00 19.2 13 Sur 27 Sur 0 -- -- 66
2019-03-27 13:00:00 19.4 14 Sur 27 Sur 0 -- -- 70
2019-03-27 12:00:00 19.1 12 Norte 32 Norte 0 -- -- 61
2019-03-27 11:00:00 17.6 19 Norte 31 Norte 0 -- -- 69
2019-03-27 10:00:00 17.2 16 Norte 26 Norte 0 -- -- 71
2019-03-27 09:00:00 16.7 6 Norte 21 Norte 0 -- -- 73
2019-03-27 08:00:00 16.1 4 Norte 26 Noroeste 0 -- -- 77
2019-03-27 07:00:00 15.8 8 Norte 18 Norte 0 -- -- 78
2019-03-27 06:00:00 15.4 9 Norte 22 Norte 0 -- -- 78
2019-03-27 05:00:00 15.3 0 Calma 29 Norte 0 -- -- 75
2019-03-27 04:00:00 15.4 14 Norte 27 Norte 0 -- -- 76
2019-03-27 03:00:00 15.8 9 Norte 22 Norte 0 -- -- 71
2019-03-27 02:00:00 15.6 12 Norte 23 Norte 0 -- -- 71
2019-03-27 01:00:00 15.1 3 Norte 21 Nordeste 0 -- -- 70
2019-03-27 00:00:00 15.7 8 Norte 23 Norte 0 -- -- 67